sensor_id;sensor_type;location;lat;lon;timestamp;pressure;altitude;pressure_sealevel;temperature;humidity
78890;BME280;68279;48.964;14.502;2024-03-29T00:00:41;95923.16;;;3.21;97.16
78890;BME280;68279;48.964;14.502;2024-03-29T00:03:09;95913.63;;;3.25;97.25
78890;BME280;68279;48.964;14.502;2024-03-29T00:05:35;95917.34;;;3.34;96.69
78890;BME280;68279;48.964;14.502;2024-03-29T00:08:01;95921.59;;;3.40;95.87
78890;BME280;68279;48.964;14.502;2024-03-29T00:10:26;95910.19;;;3.20;95.44
78890;BME280;68279;48.964;14.502;2024-03-29T00:12:52;95922.84;;;3.02;96.46
78890;BME280;68279;48.964;14.502;2024-03-29T00:15:17;95921.47;;;2.95;96.84
78890;BME280;68279;48.964;14.502;2024-03-29T00:17:43;95929.97;;;3.02;96.80
78890;BME280;68279;48.964;14.502;2024-03-29T00:20:09;95925.72;;;2.96;97.03
78890;BME280;68279;48.964;14.502;2024-03-29T00:22:35;95925.75;;;3.11;97.02
78890;BME280;68279;48.964;14.502;2024-03-29T00:25:00;95932.66;;;3.22;95.82
78890;BME280;68279;48.964;14.502;2024-03-29T00:27:27;95936.25;;;2.91;96.23
78890;BME280;68279;48.964;14.502;2024-03-29T00:29:53;95940.06;;;2.63;97.95
78890;BME280;68279;48.964;14.502;2024-03-29T00:32:19;95942.69;;;2.58;99.16
78890;BME280;68279;48.964;14.502;2024-03-29T00:34:45;95945.13;;;2.27;99.48
78890;BME280;68279;48.964;14.502;2024-03-29T00:37:11;95950.63;;;2.20;100.00
78890;BME280;68279;48.964;14.502;2024-03-29T00:39:37;95938.81;;;2.28;100.00
78890;BME280;68279;48.964;14.502;2024-03-29T00:42:03;95945.03;;;2.54;100.00
78890;BME280;68279;48.964;14.502;2024-03-29T00:44:32;95948.66;;;2.85;99.53
78890;BME280;68279;48.964;14.502;2024-03-29T00:46:57;95952.34;;;2.89;98.65
78890;BME280;68279;48.964;14.502;2024-03-29T00:49:23;95946.00;;;2.90;98.08
78890;BME280;68279;48.964;14.502;2024-03-29T00:51:49;95933.19;;;2.57;98.73
78890;BME280;68279;48.964;14.502;2024-03-29T00:54:14;95941.19;;;2.30;99.76
78890;BME280;68279;48.964;14.502;2024-03-29T00:56:40;95942.06;;;2.03;100.00
78890;BME280;68279;48.964;14.502;2024-03-29T00:59:05;95945.59;;;2.19;100.00
78890;BME280;68279;48.964;14.502;2024-03-29T01:01:31;95951.31;;;2.43;100.00
78890;BME280;68279;48.964;14.502;2024-03-29T01:03:58;95955.63;;;2.59;100.00
78890;BME280;68279;48.964;14.502;2024-03-29T01:06:23;95951.97;;;2.65;100.00
78890;BME280;68279;48.964;14.502;2024-03-29T01:08:49;95941.88;;;2.52;100.00
78890;BME280;68279;48.964;14.502;2024-03-29T01:11:14;95939.19;;;2.47;100.00
78890;BME280;68279;48.964;14.502;2024-03-29T01:13:40;95943.22;;;2.17;100.00
78890;BME280;68279;48.964;14.502;2024-03-29T01:16:06;95947.03;;;1.94;100.00
78890;BME280;68279;48.964;14.502;2024-03-29T01:18:32;95933.16;;;2.09;100.00
78890;BME280;68279;48.964;14.502;2024-03-29T01:20:59;95938.31;;;2.31;100.00
78890;BME280;68279;48.964;14.502;2024-03-29T01:23:24;95930.88;;;2.23;100.00
78890;BME280;68279;48.964;14.502;2024-03-29T01:25:50;95933.66;;;2.06;100.00
78890;BME280;68279;48.964;14.502;2024-03-29T01:28:15;95929.84;;;1.92;100.00
78890;BME280;68279;48.964;14.502;2024-03-29T01:30:41;95931.50;;;2.03;100.00
78890;BME280;68279;48.964;14.502;2024-03-29T01:33:07;95925.69;;;2.38;100.00
78890;BME280;68279;48.964;14.502;2024-03-29T01:35:32;95920.50;;;2.53;99.20
78890;BME280;68279;48.964;14.502;2024-03-29T01:37:58;95915.69;;;2.40;98.97
78890;BME280;68279;48.964;14.502;2024-03-29T01:40:23;95927.22;;;2.76;97.54
78890;BME280;68279;48.964;14.502;2024-03-29T01:42:53;95935.13;;;2.76;96.86
78890;BME280;68279;48.964;14.502;2024-03-29T01:45:19;95933.13;;;2.46;97.39
78890;BME280;68279;48.964;14.502;2024-03-29T01:47:46;95931.66;;;2.23;98.53
78890;BME280;68279;48.964;14.502;2024-03-29T01:50:12;95931.03;;;2.11;99.71
78890;BME280;68279;48.964;14.502;2024-03-29T01:52:38;95929.56;;;1.88;100.00
78890;BME280;68279;48.964;14.502;2024-03-29T01:55:05;95926.13;;;1.88;100.00
78890;BME280;68279;48.964;14.502;2024-03-29T01:57:31;95914.38;;;2.43;99.96
78890;BME280;68279;48.964;14.502;2024-03-29T01:59:57;95907.34;;;2.59;97.52
78890;BME280;68279;48.964;14.502;2024-03-29T02:02:23;95912.84;;;2.52;97.30
78890;BME280;68279;48.964;14.502;2024-03-29T02:04:49;95920.34;;;2.28;97.87
78890;BME280;68279;48.964;14.502;2024-03-29T02:07:15;95910.13;;;1.99;98.27
78890;BME280;68279;48.964;14.502;2024-03-29T02:09:41;95897.06;;;2.15;99.91
78890;BME280;68279;48.964;14.502;2024-03-29T02:12:07;95888.13;;;1.79;99.52
78890;BME280;68279;48.964;14.502;2024-03-29T02:14:33;95875.22;;;1.82;100.00
78890;BME280;68279;48.964;14.502;2024-03-29T02:16:58;95879.97;;;1.85;100.00
78890;BME280;68279;48.964;14.502;2024-03-29T02:19:24;95882.44;;;2.39;99.23
78890;BME280;68279;48.964;14.502;2024-03-29T02:21:50;95867.75;;;2.59;97.20
78890;BME280;68279;48.964;14.502;2024-03-29T02:24:18;95883.63;;;2.69;95.55
78890;BME280;68279;48.964;14.502;2024-03-29T02:26:44;95904.78;;;2.79;94.97
78890;BME280;68279;48.964;14.502;2024-03-29T02:29:11;95913.22;;;2.76;94.80
78890;BME280;68279;48.964;14.502;2024-03-29T02:31:36;95917.38;;;2.62;94.97
78890;BME280;68279;48.964;14.502;2024-03-29T02:34:03;95924.97;;;2.53;95.60
78890;BME280;68279;48.964;14.502;2024-03-29T02:36:29;95934.59;;;2.27;96.33
78890;BME280;68279;48.964;14.502;2024-03-29T02:38:54;95935.75;;;2.04;97.67
78890;BME280;68279;48.964;14.502;2024-03-29T02:41:20;95954.00;;;1.79;99.08
78890;BME280;68279;48.964;14.502;2024-03-29T02:43:46;95945.41;;;1.61;100.00
78890;BME280;68279;48.964;14.502;2024-03-29T02:46:12;95955.56;;;1.48;100.00
78890;BME280;68279;48.964;14.502;2024-03-29T02:48:38;95946.75;;;1.37;100.00
78890;BME280;68279;48.964;14.502;2024-03-29T02:51:03;95944.81;;;1.05;100.00
78890;BME280;68279;48.964;14.502;2024-03-29T02:53:29;95939.19;;;0.97;100.00
78890;BME280;68279;48.964;14.502;2024-03-29T02:55:54;95929.13;;;0.89;100.00
78890;BME280;68279;48.964;14.502;2024-03-29T02:58:20;95936.72;;;0.85;100.00
78890;BME280;68279;48.964;14.502;2024-03-29T03:00:46;95926.31;;;0.73;100.00
78890;BME280;68279;48.964;14.502;2024-03-29T03:03:15;95937.94;;;0.77;100.00
78890;BME280;68279;48.964;14.502;2024-03-29T03:05:41;95931.50;;;0.68;100.00
78890;BME280;68279;48.964;14.502;2024-03-29T03:08:07;95931.50;;;0.68;100.00
78890;BME280;68279;48.964;14.502;2024-03-29T03:10:51;95930.34;;;0.81;100.00
78890;BME280;68279;48.964;14.502;2024-03-29T03:13:27;95927.72;;;0.81;100.00
78890;BME280;68279;48.964;14.502;2024-03-29T03:15:53;95931.28;;;0.53;100.00
78890;BME280;68279;48.964;14.502;2024-03-29T03:18:19;95941.34;;;0.56;100.00
78890;BME280;68279;48.964;14.502;2024-03-29T03:20:54;95943.19;;;0.77;100.00
78890;BME280;68279;48.964;14.502;2024-03-29T03:23:20;95936.91;;;1.00;100.00
78890;BME280;68279;48.964;14.502;2024-03-29T03:25:59;95954.81;;;1.03;100.00
78890;BME280;68279;48.964;14.502;2024-03-29T03:28:25;95955.38;;;1.05;100.00
78890;BME280;68279;48.964;14.502;2024-03-29T03:30:52;95964.78;;;1.23;100.00
78890;BME280;68279;48.964;14.502;2024-03-29T03:33:19;95961.66;;;1.04;100.00
78890;BME280;68279;48.964;14.502;2024-03-29T03:35:44;95956.44;;;1.31;100.00
78890;BME280;68279;48.964;14.502;2024-03-29T03:38:10;95960.69;;;1.10;100.00
78890;BME280;68279;48.964;14.502;2024-03-29T03:40:36;95960.50;;;0.95;100.00
78890;BME280;68279;48.964;14.502;2024-03-29T03:43:03;95956.72;;;1.08;100.00
78890;BME280;68279;48.964;14.502;2024-03-29T03:45:34;95959.56;;;1.28;100.00
78890;BME280;68279;48.964;14.502;2024-03-29T03:48:00;95946.56;;;1.17;100.00
78890;BME280;68279;48.964;14.502;2024-03-29T03:50:25;95948.97;;;1.50;100.00
78890;BME280;68279;48.964;14.502;2024-03-29T03:52:51;95954.47;;;1.44;100.00
78890;BME280;68279;48.964;14.502;2024-03-29T03:55:16;95945.69;;;1.33;100.00
78890;BME280;68279;48.964;14.502;2024-03-29T03:57:42;95939.34;;;1.07;100.00
78890;BME280;68279;48.964;14.502;2024-03-29T04:00:08;95938.31;;;0.64;100.00
78890;BME280;68279;48.964;14.502;2024-03-29T04:02:34;95939.78;;;0.38;100.00
78890;BME280;68279;48.964;14.502;2024-03-29T04:05:00;95941.88;;;0.36;100.00
78890;BME280;68279;48.964;14.502;2024-03-29T04:07:25;95937.69;;;0.18;100.00
78890;BME280;68279;48.964;14.502;2024-03-29T04:09:51;95928.78;;;0.03;100.00
78890;BME280;68279;48.964;14.502;2024-03-29T04:12:17;95922.47;;;0.04;100.00
78890;BME280;68279;48.964;14.502;2024-03-29T04:14:42;95912.84;;;-0.08;100.00
78890;BME280;68279;48.964;14.502;2024-03-29T04:17:08;95915.16;;;-0.28;100.00
78890;BME280;68279;48.964;14.502;2024-03-29T04:19:34;95913.88;;;-0.42;100.00
78890;BME280;68279;48.964;14.502;2024-03-29T04:21:59;95905.53;;;-0.22;100.00
78890;BME280;68279;48.964;14.502;2024-03-29T04:24:25;95903.78;;;-0.17;100.00
78890;BME280;68279;48.964;14.502;2024-03-29T04:26:51;95904.63;;;-0.11;100.00
78890;BME280;68279;48.964;14.502;2024-03-29T04:29:16;95888.81;;;0.01;100.00
78890;BME280;68279;48.964;14.502;2024-03-29T04:31:45;95882.53;;;0.23;100.00
78890;BME280;68279;48.964;14.502;2024-03-29T04:34:10;95878.94;;;0.30;100.00
78890;BME280;68279;48.964;14.502;2024-03-29T04:36:36;95880.28;;;0.32;100.00
78890;BME280;68279;48.964;14.502;2024-03-29T04:39:02;95873.88;;;0.67;100.00
78890;BME280;68279;48.964;14.502;2024-03-29T04:41:27;95872.38;;;0.76;100.00
78890;BME280;68279;48.964;14.502;2024-03-29T04:43:53;95867.94;;;1.30;100.00
78890;BME280;68279;48.964;14.502;2024-03-29T04:46:18;95870.38;;;2.06;100.00
78890;BME280;68279;48.964;14.502;2024-03-29T04:48:44;95870.16;;;2.13;97.17
78890;BME280;68279;48.964;14.502;2024-03-29T04:51:11;95881.66;;;2.39;95.68
78890;BME280;68279;48.964;14.502;2024-03-29T04:53:38;95882.03;;;2.20;95.04
78890;BME280;68279;48.964;14.502;2024-03-29T04:56:05;95888.34;;;2.14;95.05
78890;BME280;68279;48.964;14.502;2024-03-29T04:58:31;95892.06;;;1.81;96.32
78890;BME280;68279;48.964;14.502;2024-03-29T05:00:57;95900.72;;;1.77;96.72
78890;BME280;68279;48.964;14.502;2024-03-29T05:03:23;95898.69;;;1.52;97.41
78890;BME280;68279;48.964;14.502;2024-03-29T05:05:52;95914.72;;;1.50;98.48
78890;BME280;68279;48.964;14.502;2024-03-29T05:08:18;95912.00;;;1.40;99.19
78890;BME280;68279;48.964;14.502;2024-03-29T05:10:45;95916.56;;;1.23;99.77
78890;BME280;68279;48.964;14.502;2024-03-29T05:13:11;95909.81;;;1.05;100.00
78890;BME280;68279;48.964;14.502;2024-03-29T05:15:37;95915.50;;;0.97;100.00
78890;BME280;68279;48.964;14.502;2024-03-29T05:18:03;95922.34;;;1.20;100.00
78890;BME280;68279;48.964;14.502;2024-03-29T05:20:29;95924.84;;;1.31;100.00
78890;BME280;68279;48.964;14.502;2024-03-29T05:22:55;95920.69;;;1.40;100.00
78890;BME280;68279;48.964;14.502;2024-03-29T05:25:20;95921.25;;;1.69;99.48
78890;BME280;68279;48.964;14.502;2024-03-29T05:27:46;95920.19;;;1.70;98.40
78890;BME280;68279;48.964;14.502;2024-03-29T05:30:11;95916.94;;;1.90;97.24
78890;BME280;68279;48.964;14.502;2024-03-29T05:32:38;95913.56;;;2.00;96.25
78890;BME280;68279;48.964;14.502;2024-03-29T05:35:04;95908.75;;;2.29;94.19
78890;BME280;68279;48.964;14.502;2024-03-29T05:37:30;95913.97;;;2.66;91.51
78890;BME280;68279;48.964;14.502;2024-03-29T05:39:56;95906.59;;;2.68;90.70
78890;BME280;68279;48.964;14.502;2024-03-29T05:42:30;95901.91;;;2.91;89.73
78890;BME280;68279;48.964;14.502;2024-03-29T05:44:56;95902.81;;;3.22;87.79
78890;BME280;68279;48.964;14.502;2024-03-29T05:47:21;95891.47;;;3.41;86.18
78890;BME280;68279;48.964;14.502;2024-03-29T05:49:48;95890.44;;;3.58;85.06
78890;BME280;68279;48.964;14.502;2024-03-29T05:52:14;95895.75;;;3.98;83.50
78890;BME280;68279;48.964;14.502;2024-03-29T05:54:40;95889.66;;;3.83;83.20
78890;BME280;68279;48.964;14.502;2024-03-29T05:57:06;95899.69;;;3.55;85.15
78890;BME280;68279;48.964;14.502;2024-03-29T05:59:34;95906.25;;;3.32;87.44
78890;BME280;68279;48.964;14.502;2024-03-29T06:02:00;95904.72;;;3.57;86.98
78890;BME280;68279;48.964;14.502;2024-03-29T06:04:26;95917.38;;;3.50;87.05
78890;BME280;68279;48.964;14.502;2024-03-29T06:07:01;95914.22;;;4.14;84.58
78890;BME280;68279;48.964;14.502;2024-03-29T06:09:27;95904.41;;;4.35;83.61
78890;BME280;68279;48.964;14.502;2024-03-29T06:11:54;95909.41;;;4.41;82.09
78890;BME280;68279;48.964;14.502;2024-03-29T06:14:20;95907.84;;;4.45;81.90
78890;BME280;68279;48.964;14.502;2024-03-29T06:17:07;95904.63;;;4.59;80.51
78890;BME280;68279;48.964;14.502;2024-03-29T06:19:51;95896.53;;;4.99;78.36
78890;BME280;68279;48.964;14.502;2024-03-29T06:22:21;95895.13;;;5.12;80.06
78890;BME280;68279;48.964;14.502;2024-03-29T06:24:47;95900.28;;;5.37;77.80
78890;BME280;68279;48.964;14.502;2024-03-29T06:27:13;95910.31;;;5.46;76.90
78890;BME280;68279;48.964;14.502;2024-03-29T06:29:43;95902.97;;;5.77;74.65
78890;BME280;68279;48.964;14.502;2024-03-29T06:32:09;95889.19;;;5.75;75.64
78890;BME280;68279;48.964;14.502;2024-03-29T06:34:34;95883.75;;;5.90;75.14
78890;BME280;68279;48.964;14.502;2024-03-29T06:37:01;95886.41;;;5.90;75.25
78890;BME280;68279;48.964;14.502;2024-03-29T06:39:27;95891.94;;;5.99;76.11
78890;BME280;68279;48.964;14.502;2024-03-29T06:41:53;95880.63;;;6.17;76.37
78890;BME280;68279;48.964;14.502;2024-03-29T06:44:18;95875.56;;;6.44;76.10
78890;BME280;68279;48.964;14.502;2024-03-29T06:46:46;95875.81;;;6.72;76.28
78890;BME280;68279;48.964;14.502;2024-03-29T06:49:11;95876.81;;;7.00;75.21
78890;BME280;68279;48.964;14.502;2024-03-29T06:51:39;95872.94;;;7.30;72.11
78890;BME280;68279;48.964;14.502;2024-03-29T06:54:06;95871.00;;;7.54;73.05
78890;BME280;68279;48.964;14.502;2024-03-29T06:56:31;95867.34;;;7.69;70.48
78890;BME280;68279;48.964;14.502;2024-03-29T06:58:57;95872.84;;;7.73;72.27
78890;BME280;68279;48.964;14.502;2024-03-29T07:01:24;95880.94;;;8.00;70.92
78890;BME280;68279;48.964;14.502;2024-03-29T07:03:49;95882.47;;;8.20;70.73
78890;BME280;68279;48.964;14.502;2024-03-29T07:06:15;95872.97;;;8.46;68.10
78890;BME280;68279;48.964;14.502;2024-03-29T07:08:40;95863.59;;;8.63;67.08
78890;BME280;68279;48.964;14.502;2024-03-29T07:11:06;95858.69;;;8.84;66.01
78890;BME280;68279;48.964;14.502;2024-03-29T07:13:32;95850.75;;;9.06;65.47
78890;BME280;68279;48.964;14.502;2024-03-29T07:16:01;95848.41;;;9.27;66.10
78890;BME280;68279;48.964;14.502;2024-03-29T07:18:27;95854.22;;;9.43;65.67
78890;BME280;68279;48.964;14.502;2024-03-29T07:20:53;95853.19;;;9.52;66.49
78890;BME280;68279;48.964;14.502;2024-03-29T07:23:19;95862.50;;;9.55;65.52
78890;BME280;68279;48.964;14.502;2024-03-29T07:25:45;95863.47;;;9.59;63.17
78890;BME280;68279;48.964;14.502;2024-03-29T07:28:11;95854.91;;;9.93;67.29
78890;BME280;68279;48.964;14.502;2024-03-29T07:30:41;95842.41;;;10.02;66.76
78890;BME280;68279;48.964;14.502;2024-03-29T07:33:07;95842.47;;;10.11;65.59
78890;BME280;68279;48.964;14.502;2024-03-29T07:35:34;95852.50;;;10.28;64.51
78890;BME280;68279;48.964;14.502;2024-03-29T07:38:00;95850.81;;;10.40;63.68
78890;BME280;68279;48.964;14.502;2024-03-29T07:40:26;95843.28;;;10.42;65.93
78890;BME280;68279;48.964;14.502;2024-03-29T07:42:52;95844.03;;;10.74;65.34
78890;BME280;68279;48.964;14.502;2024-03-29T07:45:18;95837.75;;;10.70;64.42
78890;BME280;68279;48.964;14.502;2024-03-29T07:47:43;95830.94;;;10.64;64.05
78890;BME280;68279;48.964;14.502;2024-03-29T07:50:09;95832.84;;;10.72;62.48
78890;BME280;68279;48.964;14.502;2024-03-29T07:53:57;95832.91;;;10.89;63.04
78890;BME280;68279;48.964;14.502;2024-03-29T07:56:23;95831.66;;;11.04;62.18
78890;BME280;68279;48.964;14.502;2024-03-29T07:58:53;95832.50;;;11.30;65.14
78890;BME280;68279;48.964;14.502;2024-03-29T08:01:22;95827.97;;;11.40;60.88
78890;BME280;68279;48.964;14.502;2024-03-29T08:03:50;95819.75;;;11.71;62.35
78890;BME280;68279;48.964;14.502;2024-03-29T08:06:16;95823.06;;;11.68;61.76
78890;BME280;68279;48.964;14.502;2024-03-29T08:08:44;95822.75;;;11.86;61.18
78890;BME280;68279;48.964;14.502;2024-03-29T08:11:11;95828.72;;;11.92;58.67
78890;BME280;68279;48.964;14.502;2024-03-29T08:13:38;95833.13;;;12.05;63.20
78890;BME280;68279;48.964;14.502;2024-03-29T08:16:04;95827.00;;;12.05;57.93
78890;BME280;68279;48.964;14.502;2024-03-29T08:18:31;95815.53;;;12.34;60.83
78890;BME280;68279;48.964;14.502;2024-03-29T08:20:57;95805.66;;;12.64;61.77
78890;BME280;68279;48.964;14.502;2024-03-29T08:23:24;95782.94;;;12.61;58.67
78890;BME280;68279;48.964;14.502;2024-03-29T08:25:50;95778.75;;;12.43;58.66
78890;BME280;68279;48.964;14.502;2024-03-29T08:28:17;95783.34;;;12.72;61.03
78890;BME280;68279;48.964;14.502;2024-03-29T08:30:44;95793.53;;;12.87;56.92
78890;BME280;68279;48.964;14.502;2024-03-29T08:33:09;95798.00;;;12.83;60.62
78890;BME280;68279;48.964;14.502;2024-03-29T08:35:35;95796.66;;;13.19;59.92
78890;BME280;68279;48.964;14.502;2024-03-29T08:38:01;95805.59;;;13.31;57.81
78890;BME280;68279;48.964;14.502;2024-03-29T08:40:28;95789.22;;;13.45;59.84
78890;BME280;68279;48.964;14.502;2024-03-29T08:42:55;95798.78;;;13.55;57.17
78890;BME280;68279;48.964;14.502;2024-03-29T08:45:21;95784.50;;;13.42;54.50
78890;BME280;68279;48.964;14.502;2024-03-29T08:47:47;95776.13;;;13.77;56.21
78890;BME280;68279;48.964;14.502;2024-03-29T08:50:13;95769.69;;;13.90;54.71
78890;BME280;68279;48.964;14.502;2024-03-29T08:52:39;95775.56;;;14.16;55.42
78890;BME280;68279;48.964;14.502;2024-03-29T08:55:06;95768.72;;;14.07;56.07
78890;BME280;68279;48.964;14.502;2024-03-29T08:57:31;95759.78;;;14.15;55.58
78890;BME280;68279;48.964;14.502;2024-03-29T08:59:59;95765.03;;;14.11;55.26
78890;BME280;68279;48.964;14.502;2024-03-29T09:02:24;95774.63;;;14.45;55.14
78890;BME280;68279;48.964;14.502;2024-03-29T09:04:50;95778.31;;;14.65;54.66
78890;BME280;68279;48.964;14.502;2024-03-29T09:07:15;95769.94;;;14.79;54.58
78890;BME280;68279;48.964;14.502;2024-03-29T09:09:41;95764.56;;;14.67;53.15
78890;BME280;68279;48.964;14.502;2024-03-29T09:12:09;95767.00;;;14.48;53.96
78890;BME280;68279;48.964;14.502;2024-03-29T09:14:35;95769.81;;;14.63;52.78
78890;BME280;68279;48.964;14.502;2024-03-29T09:17:02;95777.63;;;14.93;53.26
78890;BME280;68279;48.964;14.502;2024-03-29T09:19:28;95788.41;;;15.05;51.56
78890;BME280;68279;48.964;14.502;2024-03-29T09:21:55;95777.59;;;15.29;53.93
78890;BME280;68279;48.964;14.502;2024-03-29T09:24:21;95780.16;;;15.38;49.91
78890;BME280;68279;48.964;14.502;2024-03-29T09:26:50;95778.56;;;15.77;53.31
78890;BME280;68279;48.964;14.502;2024-03-29T09:29:15;95764.56;;;16.00;48.57
78890;BME280;68279;48.964;14.502;2024-03-29T09:31:43;95765.94;;;15.66;50.32
78890;BME280;68279;48.964;14.502;2024-03-29T09:34:08;95773.72;;;15.83;49.89
78890;BME280;68279;48.964;14.502;2024-03-29T09:36:34;95766.84;;;16.29;50.70
78890;BME280;68279;48.964;14.502;2024-03-29T09:39:00;95768.59;;;16.37;52.07
78890;BME280;68279;48.964;14.502;2024-03-29T09:41:26;95758.16;;;16.36;49.08
78890;BME280;68279;48.964;14.502;2024-03-29T09:43:55;95755.09;;;16.22;49.26
78890;BME280;68279;48.964;14.502;2024-03-29T09:46:23;95741.34;;;16.27;49.75
78890;BME280;68279;48.964;14.502;2024-03-29T09:48:50;95737.94;;;16.61;47.93
78890;BME280;68279;48.964;14.502;2024-03-29T09:51:16;95743.66;;;16.60;49.70
78890;BME280;68279;48.964;14.502;2024-03-29T09:53:43;95743.84;;;16.67;48.45
78890;BME280;68279;48.964;14.502;2024-03-29T09:56:09;95739.28;;;16.87;50.04
78890;BME280;68279;48.964;14.502;2024-03-29T09:58:36;95733.25;;;17.09;49.69
78890;BME280;68279;48.964;14.502;2024-03-29T10:01:04;95726.16;;;16.85;50.26
78890;BME280;68279;48.964;14.502;2024-03-29T10:03:32;95718.59;;;17.10;46.20
78890;BME280;68279;48.964;14.502;2024-03-29T10:06:01;95723.09;;;17.41;48.35
78890;BME280;68279;48.964;14.502;2024-03-29T10:08:30;95729.41;;;17.49;49.36
78890;BME280;68279;48.964;14.502;2024-03-29T10:10:58;95731.91;;;17.96;46.20
78890;BME280;68279;48.964;14.502;2024-03-29T10:13:25;95726.16;;;18.21;45.26
78890;BME280;68279;48.964;14.502;2024-03-29T10:15:54;95724.81;;;18.34;44.17
78890;BME280;68279;48.964;14.502;2024-03-29T10:18:27;95722.44;;;18.78;37.19
78890;BME280;68279;48.964;14.502;2024-03-29T10:21:03;95725.16;;;18.55;39.15
78890;BME280;68279;48.964;14.502;2024-03-29T10:23:30;95718.13;;;18.51;39.19
78890;BME280;68279;48.964;14.502;2024-03-29T10:25:56;95711.28;;;18.34;38.93
78890;BME280;68279;48.964;14.502;2024-03-29T10:28:23;95718.97;;;18.81;38.14
78890;BME280;68279;48.964;14.502;2024-03-29T10:30:49;95729.38;;;18.76;38.10
78890;BME280;68279;48.964;14.502;2024-03-29T10:33:15;95736.00;;;18.32;39.58
78890;BME280;68279;48.964;14.502;2024-03-29T10:35:44;95725.66;;;17.53;41.05
78890;BME280;68279;48.964;14.502;2024-03-29T10:38:11;95726.22;;;17.82;42.30
78890;BME280;68279;48.964;14.502;2024-03-29T10:40:38;95730.13;;;17.65;40.48
78890;BME280;68279;48.964;14.502;2024-03-29T10:43:09;95726.09;;;17.36;40.07
78890;BME280;68279;48.964;14.502;2024-03-29T10:45:38;95715.25;;;17.75;42.60
78890;BME280;68279;48.964;14.502;2024-03-29T10:48:04;95707.94;;;17.75;40.38
78890;BME280;68279;48.964;14.502;2024-03-29T10:50:35;95703.88;;;17.66;40.06
78890;BME280;68279;48.964;14.502;2024-03-29T10:53:02;95705.53;;;17.51;41.68
78890;BME280;68279;48.964;14.502;2024-03-29T10:55:30;95688.72;;;17.80;42.27
78890;BME280;68279;48.964;14.502;2024-03-29T10:57:58;95688.72;;;17.80;40.69
78890;BME280;68279;48.964;14.502;2024-03-29T11:00:28;95698.72;;;18.72;41.35
78890;BME280;68279;48.964;14.502;2024-03-29T11:03:13;95700.00;;;18.55;38.61
78890;BME280;68279;48.964;14.502;2024-03-29T11:05:48;95710.81;;;18.55;38.46
78890;BME280;68279;48.964;14.502;2024-03-29T11:08:24;95708.75;;;17.99;40.50
78890;BME280;68279;48.964;14.502;2024-03-29T11:10:54;95702.22;;;18.23;38.59
78890;BME280;68279;48.964;14.502;2024-03-29T11:13:37;95697.78;;;18.87;39.73
78890;BME280;68279;48.964;14.502;2024-03-29T11:16:04;95689.06;;;19.31;36.43
78890;BME280;68279;48.964;14.502;2024-03-29T11:18:30;95683.06;;;19.44;37.94
78890;BME280;68279;48.964;14.502;2024-03-29T11:20:57;95678.88;;;19.88;37.18
78890;BME280;68279;48.964;14.502;2024-03-29T11:23:25;95681.59;;;19.54;37.09
78890;BME280;68279;48.964;14.502;2024-03-29T11:25:55;95676.13;;;19.84;36.69
78890;BME280;68279;48.964;14.502;2024-03-29T11:28:31;95679.25;;;19.86;35.34
78890;BME280;68279;48.964;14.502;2024-03-29T11:31:07;95687.97;;;19.69;35.61
78890;BME280;68279;48.964;14.502;2024-03-29T11:36:00;95689.72;;;20.28;33.66
78890;BME280;68279;48.964;14.502;2024-03-29T11:38:39;95682.69;;;20.72;33.21
78890;BME280;68279;48.964;14.502;2024-03-29T11:41:11;95682.63;;;20.61;31.94
78890;BME280;68279;48.964;14.502;2024-03-29T11:43:37;95686.59;;;20.74;33.20
78890;BME280;68279;48.964;14.502;2024-03-29T11:46:07;95684.63;;;20.71;34.02
78890;BME280;68279;48.964;14.502;2024-03-29T11:48:34;95686.72;;;20.96;32.19
78890;BME280;68279;48.964;14.502;2024-03-29T11:51:02;95679.09;;;20.53;31.63
78890;BME280;68279;48.964;14.502;2024-03-29T11:53:28;95676.81;;;20.62;34.46
78890;BME280;68279;48.964;14.502;2024-03-29T11:55:58;95673.31;;;21.28;33.75
78890;BME280;68279;48.964;14.502;2024-03-29T11:58:27;95664.84;;;21.51;32.23
78890;BME280;68279;48.964;14.502;2024-03-29T12:00:54;95647.88;;;22.00;34.27
78890;BME280;68279;48.964;14.502;2024-03-29T12:03:21;95659.94;;;22.24;31.15
78890;BME280;68279;48.964;14.502;2024-03-29T12:05:51;95661.41;;;21.68;31.59
78890;BME280;68279;48.964;14.502;2024-03-29T12:08:19;95660.28;;;21.97;31.24
78890;BME280;68279;48.964;14.502;2024-03-29T12:10:45;95657.50;;;21.72;33.75
78890;BME280;68279;48.964;14.502;2024-03-29T12:13:11;95654.38;;;21.63;33.94
78890;BME280;68279;48.964;14.502;2024-03-29T12:15:36;95661.00;;;21.62;33.49
78890;BME280;68279;48.964;14.502;2024-03-29T12:18:05;95656.41;;;21.95;29.96
78890;BME280;68279;48.964;14.502;2024-03-29T12:20:32;95658.69;;;21.68;33.28
78890;BME280;68279;48.964;14.502;2024-03-29T12:23:02;95666.03;;;21.64;32.87
78890;BME280;68279;48.964;14.502;2024-03-29T12:25:29;95652.13;;;21.87;32.57
78890;BME280;68279;48.964;14.502;2024-03-29T12:27:55;95653.72;;;22.34;28.44
78890;BME280;68279;48.964;14.502;2024-03-29T12:30:21;95655.16;;;21.57;36.53
78890;BME280;68279;48.964;14.502;2024-03-29T12:32:47;95648.00;;;21.16;38.23
78890;BME280;68279;48.964;14.502;2024-03-29T12:35:16;95659.50;;;20.88;41.28
78890;BME280;68279;48.964;14.502;2024-03-29T12:37:50;95653.31;;;20.91;38.61
78890;BME280;68279;48.964;14.502;2024-03-29T12:40:19;95650.66;;;21.06;34.96
78890;BME280;68279;48.964;14.502;2024-03-29T12:42:52;95644.66;;;21.48;33.13
78890;BME280;68279;48.964;14.502;2024-03-29T12:45:22;95639.16;;;21.37;34.42
78890;BME280;68279;48.964;14.502;2024-03-29T12:47:48;95648.72;;;21.06;32.65
78890;BME280;68279;48.964;14.502;2024-03-29T12:50:31;95650.38;;;20.56;34.37
78890;BME280;68279;48.964;14.502;2024-03-29T12:53:01;95655.56;;;20.24;33.72
78890;BME280;68279;48.964;14.502;2024-03-29T12:55:28;95652.00;;;20.16;34.34